createdAt,value
2023-11-18T00:00:17.905Z,73.30
2023-11-18T00:05:25.021Z,73.60
2023-11-18T00:10:28.235Z,74.20
2023-11-18T00:15:31.111Z,76.30
2023-11-18T00:20:36.807Z,77.60
2023-11-18T00:25:41.131Z,78.30
2023-11-18T00:30:44.309Z,77.50
2023-11-18T00:35:48.589Z,78.50
2023-11-18T00:40:51.542Z,79.00
2023-11-18T00:45:54.383Z,77.60
2023-11-18T00:50:58.609Z,77.20
2023-11-18T00:56:01.966Z,77.40
2023-11-18T01:01:07.662Z,77.80
2023-11-18T01:06:11.963Z,78.00
2023-11-18T01:11:19.752Z,78.00
2023-11-18T01:16:22.790Z,78.60
2023-11-18T01:21:28.492Z,77.40
2023-11-18T01:26:31.298Z,78.90
2023-11-18T01:31:43.754Z,70.10
2023-11-18T01:36:54.658Z,71.30
2023-11-18T01:42:01.668Z,73.20
2023-11-18T01:47:07.423Z,74.70
2023-11-18T01:52:12.906Z,75.90
2023-11-18T01:57:17.156Z,77.50
2023-11-18T02:02:22.158Z,76.10
2023-11-18T02:07:26.689Z,75.50
2023-11-18T02:12:36.097Z,76.10
2023-11-18T02:17:40.773Z,77.60
2023-11-18T02:22:45.607Z,77.30
2023-11-18T02:27:50.056Z,76.60
2023-11-18T02:33:00.758Z,74.90
2023-11-18T02:38:06.030Z,76.10
2023-11-18T02:43:11.290Z,76.00
2023-11-18T02:48:16.149Z,76.90
2023-11-18T02:53:19.562Z,76.90
2023-11-18T02:58:23.774Z,77.20
2023-11-18T03:03:26.831Z,77.60
2023-11-18T03:08:30.791Z,76.90
2023-11-18T03:13:34.951Z,77.40
2023-11-18T03:18:40.516Z,77.40
2023-11-18T03:23:44.218Z,77.40
2023-11-18T03:28:48.368Z,77.50
2023-11-18T03:33:51.449Z,76.60
2023-11-18T03:38:54.250Z,76.60
2023-11-18T03:43:58.455Z,76.80
2023-11-18T03:49:01.726Z,77.50
2023-11-18T03:54:05.402Z,77.10
2023-11-18T03:59:10.442Z,77.60
2023-11-18T04:04:13.333Z,78.40
2023-11-18T04:09:16.197Z,77.50
2023-11-18T04:14:21.020Z,77.20
2023-11-18T04:19:23.831Z,77.90
2023-11-18T04:24:26.709Z,78.20
2023-11-18T04:29:31.138Z,77.90
2023-11-18T04:34:34.539Z,76.70
2023-11-18T04:39:38.077Z,76.70
2023-11-18T04:44:42.277Z,76.70
2023-11-18T04:49:45.104Z,76.20
2023-11-18T04:54:49.033Z,77.00
2023-11-18T04:59:53.240Z,78.10
2023-11-18T05:04:56.075Z,78.00
2023-11-18T05:09:58.872Z,78.30
2023-11-18T05:15:04.269Z,78.40
2023-11-18T05:20:09.905Z,78.00
2023-11-18T05:25:13.007Z,78.40
2023-11-18T05:30:18.964Z,78.80
2023-11-18T05:35:24.712Z,78.60
2023-11-18T05:40:28.202Z,78.20
2023-11-18T05:45:45.234Z,78.70
2023-11-18T05:50:49.290Z,78.90
2023-11-18T05:55:52.303Z,78.50
2023-11-18T06:00:56.565Z,79.30
2023-11-18T06:05:59.406Z,79.20
2023-11-18T06:11:06.521Z,79.20
2023-11-18T06:16:15.564Z,80.00
2023-11-18T06:21:20.961Z,79.90
2023-11-18T06:26:25.423Z,79.10
2023-11-18T06:31:30.429Z,79.40
2023-11-18T06:36:33.665Z,79.40
2023-11-18T06:41:39.266Z,79.70
2023-11-18T06:46:44.355Z,79.10
2023-11-18T06:51:47.283Z,79.70
2023-11-18T06:56:52.525Z,79.50
2023-11-18T07:01:57.044Z,79.50
2023-11-18T07:07:00.405Z,79.50
2023-11-18T07:12:04.608Z,79.40
2023-11-18T07:17:09.642Z,79.30
2023-11-18T07:22:12.703Z,79.70
2023-11-18T07:27:15.521Z,80.20
2023-11-18T07:32:20.520Z,80.20
2023-11-18T07:37:23.568Z,81.40
2023-11-18T07:42:26.964Z,80.40
2023-11-18T07:47:32.291Z,80.70
2023-11-18T07:52:35.978Z,80.90
2023-11-18T07:57:38.954Z,81.10
2023-11-18T08:02:43.424Z,80.70
2023-11-18T08:07:46.712Z,81.10
2023-11-18T08:12:49.920Z,80.80
2023-11-18T08:17:54.220Z,80.90
2023-11-18T08:22:57.230Z,81.00
2023-11-18T08:28:00.053Z,81.20
2023-11-18T08:33:06.718Z,81.70
2023-11-18T08:38:13.368Z,81.50
2023-11-18T08:43:17.820Z,81.40
2023-11-18T08:48:24.004Z,81.30
2023-11-18T08:53:27.481Z,81.40
2023-11-18T08:58:34.985Z,81.60
2023-11-18T09:03:44.097Z,81.20
2023-11-18T09:08:53.492Z,81.50
2023-11-18T09:14:01.716Z,81.70
2023-11-18T09:19:07.265Z,80.70
2023-11-18T09:24:13.497Z,79.90
2023-11-18T09:29:19.012Z,79.60
2023-11-18T09:34:28.409Z,78.80
2023-11-18T09:39:38.279Z,79.30
2023-11-18T09:44:41.459Z,78.50
2023-11-18T09:49:50.890Z,77.10
2023-11-18T09:55:04.312Z,78.40
2023-11-18T10:00:21.034Z,79.40
2023-11-18T10:05:28.648Z,79.70
2023-11-18T10:10:37.372Z,78.80
2023-11-18T10:15:40.844Z,78.60
2023-11-18T10:20:49.312Z,79.20
2023-11-18T10:25:54.617Z,78.80
2023-11-18T10:30:59.824Z,78.80
2023-11-18T10:36:05.334Z,79.70
2023-11-18T10:41:08.564Z,79.20
2023-11-18T10:46:14.424Z,79.40
2023-11-18T10:51:20.803Z,79.30
2023-11-18T10:56:29.311Z,78.80
2023-11-18T11:01:33.625Z,79.00
2023-11-18T11:06:42.698Z,77.90
2023-11-18T11:11:52.084Z,78.10
2023-11-18T11:16:57.100Z,79.10
2023-11-18T11:22:08.569Z,77.80
2023-11-18T11:27:29.792Z,78.30
2023-11-18T11:32:39.798Z,77.70
2023-11-18T11:37:45.498Z,77.40
2023-11-18T11:42:48.942Z,75.80
2023-11-18T11:47:53.707Z,76.20
2023-11-18T11:53:11.267Z,76.80
2023-11-18T11:58:28.198Z,77.70
2023-11-18T12:03:37.426Z,77.00
2023-11-18T12:08:45.281Z,77.30
2023-11-18T12:14:13.875Z,77.30
2023-11-18T12:19:33.638Z,78.70
2023-11-18T12:24:37.802Z,79.50
2023-11-18T12:29:44.733Z,79.80
2023-11-18T12:34:54.925Z,80.60
2023-11-18T12:40:41.652Z,81.60
2023-11-18T12:46:06.577Z,81.60
2023-11-18T12:51:13.746Z,81.40
2023-11-18T12:56:20.128Z,81.90
2023-11-18T13:01:24.162Z,81.90
2023-11-18T13:06:29.604Z,82.00
2023-11-18T13:11:34.993Z,83.00
2023-11-18T13:16:37.965Z,82.40
2023-11-18T13:21:42.432Z,81.40
2023-11-18T13:26:47.594Z,83.10
2023-11-18T13:31:52.042Z,82.40
2023-11-18T13:36:55.908Z,81.20
2023-11-18T13:42:01.718Z,80.60
2023-11-18T13:47:07.308Z,82.20
2023-11-18T13:52:12.443Z,81.10
2023-11-18T13:57:17.713Z,81.20
2023-11-18T14:02:20.725Z,80.80
2023-11-18T14:07:25.574Z,80.10
2023-11-18T14:12:29.849Z,81.00
2023-11-18T14:17:32.856Z,79.70
2023-11-18T14:22:37.684Z,80.20
2023-11-18T14:27:42.139Z,81.90
2023-11-18T14:32:44.997Z,82.20
2023-11-18T14:37:47.896Z,81.40
2023-11-18T14:42:53.208Z,81.00
2023-11-18T14:47:57.136Z,81.10
2023-11-18T14:53:01.570Z,80.80
2023-11-18T14:58:07.949Z,81.00
2023-11-18T15:03:11.356Z,82.80
2023-11-18T15:08:14.326Z,81.30
2023-11-18T15:13:19.121Z,82.60
2023-11-18T15:18:22.072Z,82.00
2023-11-18T15:23:25.017Z,82.00
2023-11-18T15:28:29.216Z,82.70
2023-11-18T15:33:32.459Z,82.20
2023-11-18T15:38:36.622Z,82.70
2023-11-18T15:43:41.611Z,82.50
2023-11-18T15:48:44.437Z,81.30
2023-11-18T15:53:47.359Z,82.00
2023-11-18T15:58:51.564Z,83.90
2023-11-18T16:03:54.435Z,83.80
2023-11-18T16:08:58.127Z,84.00
2023-11-18T16:14:02.366Z,82.00
2023-11-18T16:19:06.662Z,83.20
2023-11-18T16:24:10.496Z,82.40
2023-11-18T16:29:15.519Z,81.20
2023-11-18T16:34:18.390Z,82.00
2023-11-18T16:39:22.013Z,83.30
2023-11-18T16:44:26.184Z,82.30
2023-11-18T16:49:28.970Z,83.60
2023-11-18T16:54:39.110Z,83.60
2023-11-18T16:59:46.321Z,84.10
2023-11-18T17:04:49.139Z,83.40
2023-11-18T17:09:51.957Z,84.10
2023-11-18T17:14:56.083Z,83.70
2023-11-18T17:19:58.944Z,82.90
2023-11-18T17:25:01.815Z,83.20
2023-11-18T17:30:09.600Z,83.90
2023-11-18T17:35:14.422Z,83.30
2023-11-18T17:40:19.085Z,84.70
2023-11-18T17:45:24.883Z,88.30
2023-11-18T17:50:28.051Z,88.60
2023-11-18T17:55:31.461Z,90.10
2023-11-18T18:00:35.728Z,88.80
2023-11-18T18:05:39.248Z,90.60
2023-11-18T18:10:42.371Z,93.30
2023-11-18T18:15:48.309Z,89.50
2023-11-18T18:20:51.193Z,90.50
2023-11-18T18:25:55.220Z,91.90
2023-11-18T18:30:59.408Z,89.10
2023-11-18T18:36:02.273Z,90.90
2023-11-18T18:41:06.503Z,90.00
2023-11-18T18:46:10.842Z,98.10
2023-11-18T18:51:15.900Z,91.70
2023-11-18T18:56:18.973Z,90.00
2023-11-18T19:01:24.822Z,87.60
2023-11-18T19:06:28.791Z,89.50
2023-11-18T19:11:32.325Z,89.60
2023-11-18T19:16:36.536Z,93.00
2023-11-18T19:21:39.407Z,94.10
2023-11-18T19:26:42.302Z,90.40
2023-11-18T19:31:46.487Z,92.00
2023-11-18T19:36:49.603Z,94.10
2023-11-18T19:41:52.472Z,92.80
2023-11-18T19:46:56.630Z,91.50
2023-11-18T19:51:59.479Z,90.50
2023-11-18T19:57:02.451Z,94.10
2023-11-18T20:02:07.422Z,89.70
2023-11-18T20:07:10.274Z,94.00
2023-11-18T20:12:13.109Z,91.40
2023-11-18T20:17:17.350Z,91.20
2023-11-18T20:22:20.426Z,92.40
2023-11-18T20:27:24.015Z,89.50
2023-11-18T20:32:29.580Z,91.30
2023-11-18T20:37:32.622Z,93.80
2023-11-18T20:42:36.305Z,92.10
2023-11-18T20:47:40.549Z,90.20
2023-11-18T20:52:43.859Z,90.80
2023-11-18T20:57:46.741Z,93.10
2023-11-18T21:02:51.816Z,90.50
2023-11-18T21:07:54.744Z,92.60
2023-11-18T21:12:57.567Z,92.10
2023-11-18T21:18:01.750Z,93.20
2023-11-18T21:23:05.553Z,91.10
2023-11-18T21:28:08.570Z,93.30
2023-11-18T21:33:12.800Z,94.30
2023-11-18T21:38:15.741Z,93.20
2023-11-18T21:43:18.805Z,93.10
2023-11-18T21:48:23.897Z,93.00
2023-11-18T21:53:28.826Z,92.70
2023-11-18T21:58:32.643Z,94.40
2023-11-18T22:03:36.889Z,92.20
2023-11-18T22:08:39.902Z,93.80
2023-11-18T22:13:42.873Z,93.70
2023-11-18T22:18:47.527Z,94.20
2023-11-18T22:23:50.493Z,93.10
2023-11-18T22:28:54.910Z,94.40
2023-11-18T22:34:00.332Z,93.70
2023-11-18T22:39:03.175Z,94.80
2023-11-18T22:44:07.825Z,94.50
2023-11-18T22:49:15.292Z,93.90
2023-11-18T22:54:18.841Z,93.10
2023-11-18T22:59:22.028Z,93.40
2023-11-18T23:04:27.042Z,95.20
2023-11-18T23:09:30.429Z,93.80
2023-11-18T23:14:33.962Z,93.20
2023-11-18T23:19:47.724Z,93.40
2023-11-18T23:24:53.671Z,94.40
2023-11-18T23:29:56.524Z,95.30
2023-11-18T23:35:01.917Z,94.90
2023-11-18T23:40:10.866Z,94.00
2023-11-18T23:45:14.742Z,94.60
2023-11-18T23:50:19.068Z,94.30
2023-11-18T23:55:22.158Z,94.10
